Wood, Pennsylvania
Current Conditions -  °F | °C
As of 3:53 PM on Friday 19 Dec 2014 (Local Time) from KAOO Reporting Station
Overcast Overcast  
Wind Chill: 20°   Ceiling: 2700
Heat Index: 30°   Visibility: 10mi
Dew Point: 21°   Wind: 14mph
Humidity: 69%   Direction: 310°NW
Pressure: 30.14"   Gusts: NA
Location:  40.17°N, 78.14°W
Report Text: KAOO 192053Z AUTO 31012KT 10SM OVC027 M01/M06 A3014 RMK AO2 SLP224 T10111061 53010
Loading
Personal Weather Stations






























Interactive Weather Map New forecast layout! Learn more

10-Day Weather Forecast

Advertisements
Track Severe Weather on mobile